Terminal Aerodrome Forecast
Issued by NWS Louisville, KY

Home | Current Version | Previous Version | Text Only | Print | Product List | Glossary On
Versions: 1 2 3 4 5 6 7 8 9 10 11 12 13 14 15
000
FTUS43 KLMK 142325
TAFLEX
TAF
KLEX 142325Z 1500/1524 01004KT P6SM FEW040 SCT200
     FM151500 25007KT P6SM FEW050 SCT100
     FM151700 26010G19KT P6SM FEW050 SCT060=

USA.gov is the U.S. government's official web portal to all federal, state and local government web resources and services.